OMRK/RKT METAR and TAF weather

Enter ICAO airport designator
Station Type Date Time Source
OMRK METAR 2019/02/21 16:00 UTC NOAA

OMRK 211600Z 32003KT CAVOK 19/12 Q1020 A3014


Station Type Date Time Source
OMRK Decoded METAR 2019/02/21 16:00 UTC NOAA

Ras Al Khaimah International Airport, United Arab Emirates (OMRK) 25-37N 055-56E 31M
Feb 21, 2019 - 11:00 AM EST / 2019.02.21 1600 UTC
Wind: from the NW (320 degrees) at 3 MPH (3 KT):0
Visibility: greater than 7 mile(s):0
Temperature: 66 F (19 C)
Dew Point: 53 F (12 C)
Relative Humidity: 63%
Pressure (altimeter): 30.14 in. Hg (1020 hPa)
ob: OMRK 211600Z 32003KT CAVOK 19/12 Q1020 A3014
cycle: 16

Station Type Date Time Source
OMRK TAF 2019/02/21 12:06 UTC NOAA

TAF OMRK 211058Z 2112/2218 34010KT 8000 FEW040
BECMG 2115/2117 VRB02KT
BECMG 2209/2211 35010KT
BECMG 2215/2217 10007KT


Example: see airport list